createdAt,value
2022-10-06T00:01:03.724Z,18.88
2022-10-06T00:03:31.115Z,22.55
2022-10-06T00:06:02.883Z,21.20
2022-10-06T00:08:34.377Z,20.70
2022-10-06T00:13:28.944Z,21.73
2022-10-06T00:15:56.531Z,22.20
2022-10-06T00:18:23.433Z,20.38
2022-10-06T00:20:58.260Z,22.50
2022-10-06T00:23:25.490Z,30.17
2022-10-06T00:25:52.392Z,20.67
2022-10-06T00:28:19.404Z,20.25
2022-10-06T00:30:46.951Z,18.08
2022-10-06T00:33:17.848Z,23.42
2022-10-06T00:35:44.961Z,15.55
2022-10-06T00:38:16.483Z,20.27
2022-10-06T00:43:49.638Z,25.58
2022-10-06T00:46:23.233Z,19.02
2022-10-06T00:49:05.064Z,19.70
2022-10-06T00:51:34.130Z,22.85
2022-10-06T00:54:02.302Z,23.73
2022-10-06T00:56:29.629Z,21.08
2022-10-06T00:58:56.426Z,19.77
2022-10-06T01:01:24.008Z,21.83
2022-10-06T01:03:57.684Z,21.73
2022-10-06T01:06:24.675Z,20.98
2022-10-06T01:08:52.895Z,20.63
2022-10-06T01:11:19.958Z,19.48
2022-10-06T01:13:46.969Z,20.05
2022-10-06T01:16:24.434Z,18.65
2022-10-06T01:18:53.264Z,18.38
2022-10-06T01:21:25.756Z,19.83
2022-10-06T01:23:53.083Z,16.20
2022-10-06T01:26:21.819Z,22.20
2022-10-06T01:28:49.190Z,19.63
2022-10-06T01:31:16.626Z,17.98
2022-10-06T01:33:43.749Z,22.73
2022-10-06T01:36:10.662Z,22.25
2022-10-06T01:38:37.510Z,20.50
2022-10-06T01:41:04.638Z,19.92
2022-10-06T01:43:31.472Z,21.55
2022-10-06T01:45:58.956Z,20.33
2022-10-06T01:48:27.074Z,18.85
2022-10-06T01:50:54.679Z,17.80
2022-10-06T01:53:22.264Z,19.73
2022-10-06T01:55:49.190Z,18.13
2022-10-06T01:58:16.243Z,21.85
2022-10-06T02:00:43.403Z,21.90
2022-10-06T02:03:10.250Z,20.30
2022-10-06T02:05:37.150Z,18.05
2022-10-06T02:08:04.098Z,20.60
2022-10-06T02:10:31.000Z,22.05
2022-10-06T02:12:57.858Z,23.48
2022-10-06T02:15:25.133Z,20.30
2022-10-06T02:17:52.595Z,19.38
2022-10-06T02:20:19.755Z,19.15
2022-10-06T02:22:46.596Z,17.92
2022-10-06T02:25:13.401Z,23.15
2022-10-06T02:27:40.521Z,18.65
2022-10-06T02:30:08.970Z,20.92
2022-10-06T02:32:39.292Z,23.38
2022-10-06T02:35:07.312Z,21.25
2022-10-06T02:37:34.544Z,21.48
2022-10-06T02:40:01.452Z,22.23
2022-10-06T02:42:28.474Z,17.38
2022-10-06T02:44:55.336Z,22.08
2022-10-06T02:47:22.760Z,21.35
2022-10-06T02:49:49.681Z,22.85
2022-10-06T02:52:16.925Z,19.92
2022-10-06T02:54:43.819Z,22.48
2022-10-06T02:57:10.653Z,18.70
2022-10-06T02:59:37.554Z,19.30
2022-10-06T03:02:04.669Z,19.23
2022-10-06T03:04:31.688Z,28.05
2022-10-06T03:06:58.622Z,20.25
2022-10-06T03:09:25.555Z,22.48
2022-10-06T03:11:52.494Z,19.70
2022-10-06T03:14:21.871Z,18.92
2022-10-06T03:16:51.564Z,18.95
2022-10-06T03:19:18.440Z,20.30
2022-10-06T03:21:45.357Z,25.23
2022-10-06T03:24:12.582Z,16.30
2022-10-06T03:26:42.376Z,19.80
2022-10-06T03:29:12.055Z,17.30
2022-10-06T03:31:40.127Z,19.85
2022-10-06T03:34:07.230Z,19.63
2022-10-06T03:36:35.364Z,21.67
2022-10-06T03:39:04.238Z,19.58
2022-10-06T03:41:33.796Z,25.58
2022-10-06T03:44:01.558Z,21.42
2022-10-06T03:46:30.643Z,20.52
2022-10-06T03:48:58.108Z,21.77
2022-10-06T03:51:27.463Z,24.30
2022-10-06T03:53:54.562Z,19.13
2022-10-06T03:56:24.097Z,19.77
2022-10-06T03:59:01.818Z,19.90
2022-10-06T04:01:39.749Z,20.17
2022-10-06T04:04:07.046Z,19.65
2022-10-06T04:06:37.115Z,21.65
2022-10-06T04:09:05.891Z,21.73
2022-10-06T04:11:35.897Z,25.63
2022-10-06T04:14:06.033Z,21.77
2022-10-06T04:16:38.490Z,16.85
2022-10-06T04:19:09.941Z,21.73
2022-10-06T04:21:38.436Z,17.92
2022-10-06T04:24:06.581Z,22.67
2022-10-06T04:26:37.733Z,19.55
2022-10-06T04:29:05.063Z,19.63
2022-10-06T04:31:36.352Z,23.65
2022-10-06T04:34:03.943Z,22.25
2022-10-06T04:36:33.432Z,23.83
2022-10-06T04:39:02.973Z,26.23
2022-10-06T04:41:38.139Z,29.70
2022-10-06T04:44:06.097Z,23.10
2022-10-06T04:46:43.848Z,21.30
2022-10-06T04:49:18.565Z,17.42
2022-10-06T04:51:46.684Z,20.38
2022-10-06T04:54:13.554Z,21.40
2022-10-06T04:56:40.369Z,23.10
2022-10-06T04:59:07.185Z,17.15
2022-10-06T05:01:36.527Z,23.90
2022-10-06T05:04:04.899Z,23.10
2022-10-06T05:06:33.260Z,18.73
2022-10-06T05:09:09.425Z,20.17
2022-10-06T05:11:36.682Z,21.50
2022-10-06T05:14:03.663Z,17.42
2022-10-06T05:16:31.573Z,22.75
2022-10-06T05:18:59.203Z,21.10
2022-10-06T05:21:31.383Z,23.48
2022-10-06T05:23:58.977Z,22.40
2022-10-06T05:26:28.416Z,23.08
2022-10-06T05:28:55.365Z,21.27
2022-10-06T05:31:24.882Z,24.25
2022-10-06T05:33:51.823Z,24.10
2022-10-06T05:36:24.776Z,25.52
2022-10-06T05:38:51.749Z,24.50
2022-10-06T05:41:26.667Z,25.45
2022-10-06T05:43:53.545Z,18.60
2022-10-06T05:46:29.123Z,29.27
2022-10-06T05:49:04.815Z,19.63
2022-10-06T05:51:33.807Z,23.77
2022-10-06T05:54:01.579Z,31.13
2022-10-06T05:56:31.004Z,22.60
2022-10-06T05:58:58.866Z,21.58
2022-10-06T06:01:25.790Z,37.17
2022-10-06T06:03:55.073Z,22.48
2022-10-06T06:06:25.978Z,34.25
2022-10-06T06:08:56.465Z,36.45
2022-10-06T06:11:27.952Z,26.20
2022-10-06T06:16:27.190Z,21.38
2022-10-06T06:18:54.523Z,22.90
2022-10-06T06:21:21.443Z,21.95
2022-10-06T06:23:49.138Z,27.25
2022-10-06T06:26:24.109Z,29.10
2022-10-06T06:28:52.746Z,34.83
2022-10-06T06:31:33.804Z,28.17
2022-10-06T06:34:02.801Z,20.52
2022-10-06T06:36:37.006Z,21.48
2022-10-06T06:39:07.865Z,19.65
2022-10-06T06:41:37.927Z,25.02
2022-10-06T06:44:08.205Z,24.27
2022-10-06T06:49:07.624Z,25.20
2022-10-06T06:51:40.439Z,20.17
2022-10-06T06:54:08.827Z,23.15
2022-10-06T06:56:36.123Z,25.63
2022-10-06T06:59:10.561Z,20.58
2022-10-06T07:01:39.140Z,18.90
2022-10-06T07:04:06.348Z,25.95
2022-10-06T07:06:33.274Z,24.45
2022-10-06T07:09:00.737Z,26.80
2022-10-06T07:11:31.424Z,24.75
2022-10-06T07:14:01.455Z,24.53
2022-10-06T07:16:48.735Z,17.20
2022-10-06T07:19:35.990Z,32.97
2022-10-06T07:22:25.877Z,21.88
2022-10-06T07:25:12.990Z,28.25
2022-10-06T07:27:45.510Z,26.58
2022-10-06T07:30:19.311Z,21.27
2022-10-06T07:32:47.848Z,27.45
2022-10-06T07:35:15.697Z,18.08
2022-10-06T07:37:42.766Z,20.67
2022-10-06T07:40:10.849Z,19.35
2022-10-06T07:42:48.973Z,18.30
2022-10-06T07:45:35.060Z,22.42
2022-10-06T07:48:02.670Z,23.55
2022-10-06T07:50:29.696Z,19.38
2022-10-06T07:52:56.607Z,21.85
2022-10-06T07:55:23.646Z,17.38
2022-10-06T07:57:51.346Z,16.48
2022-10-06T08:00:22.399Z,20.88
2022-10-06T08:02:49.717Z,21.63
2022-10-06T08:05:16.648Z,17.77
2022-10-06T08:07:43.486Z,20.50
2022-10-06T08:10:10.432Z,17.17
2022-10-06T08:12:38.028Z,22.33
2022-10-06T08:15:11.364Z,16.38
2022-10-06T08:17:38.788Z,21.75
2022-10-06T08:20:09.258Z,23.98
2022-10-06T08:22:38.813Z,27.58
2022-10-06T08:25:07.577Z,21.20
2022-10-06T08:27:36.194Z,20.65
2022-10-06T08:30:05.419Z,16.77
2022-10-06T08:32:33.697Z,22.17
2022-10-06T08:35:00.532Z,16.52
2022-10-06T08:37:27.482Z,17.73
2022-10-06T08:39:55.422Z,20.98
2022-10-06T08:42:25.055Z,19.38
2022-10-06T08:45:02.943Z,22.05
2022-10-06T08:47:34.802Z,18.13
2022-10-06T08:50:05.026Z,19.20
2022-10-06T08:53:14.082Z,18.40
2022-10-06T08:55:52.885Z,21.10
2022-10-06T08:58:50.462Z,19.38
2022-10-06T09:01:25.265Z,17.95
2022-10-06T09:04:01.790Z,25.15
2022-10-06T09:06:47.291Z,19.55
2022-10-06T09:09:53.734Z,19.60
2022-10-06T09:12:27.516Z,19.50
2022-10-06T09:15:14.633Z,21.48
2022-10-06T09:17:57.750Z,23.23
2022-10-06T09:20:34.311Z,17.25
2022-10-06T09:23:04.824Z,19.30
2022-10-06T09:25:33.042Z,19.65
2022-10-06T09:28:03.403Z,16.80
2022-10-06T09:30:30.449Z,18.38
2022-10-06T09:33:03.533Z,21.50
2022-10-06T09:35:32.225Z,23.05
2022-10-06T09:38:08.746Z,20.38
2022-10-06T09:40:46.519Z,18.17
2022-10-06T09:43:28.052Z,18.40
2022-10-06T09:45:56.650Z,22.02
2022-10-06T09:48:27.269Z,16.70
2022-10-06T09:51:14.794Z,19.92
2022-10-06T09:53:43.262Z,19.50
2022-10-06T09:56:19.386Z,16.40
2022-10-06T09:58:57.463Z,17.10
2022-10-06T10:01:29.851Z,17.15
2022-10-06T10:04:20.443Z,21.77
2022-10-06T10:06:47.964Z,20.03
2022-10-06T10:09:24.978Z,17.77
2022-10-06T10:12:26.281Z,23.88
2022-10-06T10:14:56.817Z,19.40
2022-10-06T10:17:34.654Z,16.58
2022-10-06T10:20:03.155Z,16.77
2022-10-06T10:22:37.515Z,19.60
2022-10-06T10:25:13.957Z,15.07
2022-10-06T10:27:54.997Z,17.73
2022-10-06T10:30:23.801Z,11.60
2022-10-06T10:33:02.722Z,11.32
2022-10-06T10:35:34.313Z,11.63
2022-10-06T10:38:18.174Z,23.08
2022-10-06T10:41:09.750Z,15.02
2022-10-06T10:43:53.220Z,19.48
2022-10-06T10:46:48.844Z,15.43
2022-10-06T10:49:19.921Z,13.57
2022-10-06T10:51:57.316Z,10.35
2022-10-06T10:55:04.646Z,10.38
2022-10-06T10:57:41.373Z,9.73
2022-10-06T11:00:29.134Z,11.10
2022-10-06T11:02:58.958Z,12.57
2022-10-06T11:05:33.397Z,7.75
2022-10-06T11:08:38.014Z,11.68
2022-10-06T11:11:14.361Z,13.55
2022-10-06T11:13:45.974Z,8.50
2022-10-06T11:16:48.229Z,8.07
2022-10-06T11:19:35.722Z,8.98
2022-10-06T11:22:40.687Z,11.52
2022-10-06T11:25:16.870Z,6.50
2022-10-06T11:28:22.651Z,9.30
2022-10-06T11:31:27.037Z,7.30
2022-10-06T11:33:56.411Z,4.50
2022-10-06T11:36:41.771Z,6.35
2022-10-06T11:39:35.461Z,7.45
2022-10-06T11:45:15.900Z,6.15
2022-10-06T11:48:01.449Z,21.30
2022-10-06T11:50:33.325Z,6.30
2022-10-06T11:53:00.598Z,8.50
2022-10-06T11:55:29.429Z,10.25
2022-10-06T11:58:12.658Z,9.10
2022-10-06T12:00:50.706Z,5.15
2022-10-06T12:03:31.164Z,3.15
2022-10-06T12:05:58.095Z,14.05
2022-10-06T12:08:39.481Z,12.23
2022-10-06T12:11:38.126Z,8.40
2022-10-06T12:17:22.563Z,10.98
2022-10-06T12:19:58.320Z,5.80
2022-10-06T12:22:34.710Z,8.68
2022-10-06T12:25:10.051Z,5.63
2022-10-06T12:28:01.796Z,1.90
2022-10-06T12:30:54.087Z,4.30
2022-10-06T12:33:41.053Z,5.35
2022-10-06T12:36:28.764Z,3.20
2022-10-06T12:39:02.227Z,3.90
2022-10-06T12:42:03.258Z,6.70
2022-10-06T12:44:33.469Z,7.03
2022-10-06T12:47:10.291Z,13.50
2022-10-06T12:49:37.159Z,5.97
2022-10-06T12:52:23.819Z,7.80
2022-10-06T12:55:11.935Z,14.18
2022-10-06T12:57:53.430Z,7.85
2022-10-06T13:00:41.031Z,6.57
2022-10-06T13:03:15.501Z,5.65
2022-10-06T13:05:48.965Z,4.57
2022-10-06T13:08:25.032Z,5.75
2022-10-06T13:11:10.266Z,3.42
2022-10-06T13:13:38.928Z,7.32
2022-10-06T13:16:08.492Z,7.63
2022-10-06T13:18:35.331Z,13.07
2022-10-06T13:21:02.231Z,6.60
2022-10-06T13:23:37.256Z,12.52
2022-10-06T13:26:08.611Z,8.25
2022-10-06T13:28:44.552Z,7.45
2022-10-06T13:31:30.427Z,8.00
2022-10-06T13:34:01.705Z,9.30
2022-10-06T13:36:30.344Z,7.88
2022-10-06T13:38:57.336Z,7.95
2022-10-06T13:41:29.830Z,5.97
2022-10-06T13:44:04.792Z,4.45
2022-10-06T13:46:39.853Z,7.55
2022-10-06T13:49:29.869Z,9.13
2022-10-06T13:52:22.396Z,6.88
2022-10-06T13:54:52.176Z,5.90
2022-10-06T13:57:45.354Z,7.38
2022-10-06T14:00:15.362Z,7.55
2022-10-06T14:02:43.857Z,5.63
2022-10-06T14:05:29.541Z,5.60
2022-10-06T14:08:02.794Z,6.53
2022-10-06T14:10:42.551Z,4.90
2022-10-06T14:13:18.008Z,10.77
2022-10-06T14:15:56.680Z,7.90
2022-10-06T14:18:34.592Z,3.67
2022-10-06T14:21:31.454Z,9.85
2022-10-06T14:23:59.694Z,5.05
2022-10-06T14:26:31.972Z,6.30
2022-10-06T14:28:59.295Z,4.45
2022-10-06T14:31:27.706Z,6.47
2022-10-06T14:33:56.985Z,4.38
2022-10-06T14:36:32.842Z,4.05
2022-10-06T14:39:00.528Z,3.85
2022-10-06T14:41:29.451Z,8.23
2022-10-06T14:43:58.391Z,4.13
2022-10-06T14:46:25.723Z,6.72
2022-10-06T14:48:52.667Z,5.15
2022-10-06T14:51:20.987Z,7.55
2022-10-06T14:54:08.026Z,5.60
2022-10-06T14:56:37.393Z,6.85
2022-10-06T14:59:06.388Z,8.00
2022-10-06T15:01:35.451Z,5.68
2022-10-06T15:04:11.346Z,4.15
2022-10-06T15:06:57.245Z,3.40
2022-10-06T15:09:24.123Z,7.10
2022-10-06T15:11:51.925Z,7.40
2022-10-06T15:14:18.860Z,6.40
2022-10-06T15:16:45.709Z,6.20
2022-10-06T15:19:12.957Z,6.45
2022-10-06T15:21:41.449Z,5.28
2022-10-06T15:24:12.603Z,7.40
2022-10-06T15:26:58.399Z,12.07
2022-10-06T15:29:25.467Z,5.15
2022-10-06T15:31:54.612Z,8.10
2022-10-06T15:34:27.240Z,6.53
2022-10-06T15:36:55.620Z,3.13
2022-10-06T15:39:24.861Z,4.22
2022-10-06T15:41:52.316Z,4.07
2022-10-06T15:44:22.393Z,9.00
2022-10-06T15:46:54.891Z,9.80
2022-10-06T15:49:23.855Z,3.35
2022-10-06T15:51:54.774Z,8.38
2022-10-06T15:54:26.691Z,8.60
2022-10-06T15:56:58.615Z,8.48
2022-10-06T15:59:27.260Z,6.78
2022-10-06T16:01:57.123Z,6.55
2022-10-06T16:04:37.897Z,7.35
2022-10-06T16:07:08.940Z,5.97
2022-10-06T16:09:43.035Z,6.85
2022-10-06T16:12:11.992Z,10.57
2022-10-06T16:14:38.866Z,7.25
2022-10-06T16:17:06.737Z,7.55
2022-10-06T16:19:36.938Z,5.15
2022-10-06T16:22:05.442Z,5.88
2022-10-06T16:24:32.369Z,5.10
2022-10-06T16:27:00.192Z,9.02
2022-10-06T16:29:28.443Z,5.72
2022-10-06T16:31:55.998Z,7.50
2022-10-06T16:34:23.094Z,8.38
2022-10-06T16:36:49.963Z,6.72
2022-10-06T16:39:19.546Z,8.65
2022-10-06T16:41:47.135Z,7.60
2022-10-06T16:44:14.393Z,10.23
2022-10-06T16:46:41.503Z,6.38
2022-10-06T16:49:09.356Z,9.48
2022-10-06T16:51:38.885Z,15.02
2022-10-06T16:54:08.074Z,16.17
2022-10-06T16:56:36.622Z,8.30
2022-10-06T16:59:14.900Z,8.70
2022-10-06T17:01:42.478Z,7.85
2022-10-06T17:04:21.408Z,10.25
2022-10-06T17:06:56.165Z,10.95
2022-10-06T17:09:26.283Z,13.50
2022-10-06T17:11:58.917Z,8.77
2022-10-06T17:14:26.546Z,7.88
2022-10-06T17:16:55.906Z,9.43
2022-10-06T17:19:25.040Z,9.15
2022-10-06T17:21:58.193Z,7.72
2022-10-06T17:24:28.197Z,7.70
2022-10-06T17:26:56.758Z,21.25
2022-10-06T17:29:24.394Z,9.50
2022-10-06T17:32:00.231Z,7.72
2022-10-06T17:34:32.356Z,11.93
2022-10-06T17:37:01.207Z,7.40
2022-10-06T17:39:28.128Z,16.13
2022-10-06T17:41:55.163Z,20.25
2022-10-06T17:44:26.117Z,17.98
2022-10-06T17:46:55.696Z,10.45
2022-10-06T17:49:24.281Z,17.75
2022-10-06T17:51:53.641Z,9.52
2022-10-06T17:54:22.856Z,9.90
2022-10-06T17:56:52.165Z,12.95
2022-10-06T17:59:22.457Z,10.68
2022-10-06T18:01:51.397Z,9.93
2022-10-06T18:04:19.343Z,10.45
2022-10-06T18:06:47.504Z,8.30
2022-10-06T18:09:15.940Z,12.10
2022-10-06T18:11:44.482Z,9.52
2022-10-06T18:14:21.767Z,9.77
2022-10-06T18:16:55.728Z,9.80
2022-10-06T18:19:31.550Z,15.10
2022-10-06T18:22:01.279Z,11.77
2022-10-06T18:24:29.771Z,14.27
2022-10-06T18:26:59.907Z,7.82
2022-10-06T18:29:30.900Z,14.02
2022-10-06T18:32:09.442Z,9.57
2022-10-06T18:37:31.671Z,13.07
2022-10-06T18:39:58.487Z,10.65
2022-10-06T18:42:25.625Z,10.82
2022-10-06T18:45:11.142Z,15.05
2022-10-06T18:47:56.536Z,10.15
2022-10-06T18:50:23.512Z,7.85
2022-10-06T18:52:50.321Z,11.82
2022-10-06T18:55:17.234Z,14.85
2022-10-06T18:57:45.230Z,11.98
2022-10-06T19:00:12.725Z,9.07
2022-10-06T19:02:39.658Z,12.93
2022-10-06T19:05:06.786Z,15.77
2022-10-06T19:07:34.290Z,13.68
2022-10-06T19:10:01.151Z,9.02
2022-10-06T19:12:27.987Z,17.08
2022-10-06T19:14:55.727Z,8.35
2022-10-06T19:17:24.378Z,8.93
2022-10-06T19:19:51.717Z,11.23
2022-10-06T19:22:23.820Z,10.27
2022-10-06T19:24:51.463Z,6.38
2022-10-06T19:27:26.205Z,11.43
2022-10-06T19:29:56.484Z,12.27
2022-10-06T19:32:29.244Z,22.45
2022-10-06T19:34:58.839Z,17.23
2022-10-06T19:37:28.317Z,19.45
2022-10-06T19:39:55.586Z,15.30
2022-10-06T19:42:40.898Z,15.52
2022-10-06T19:45:09.595Z,11.32
2022-10-06T19:47:36.425Z,10.68
2022-10-06T19:50:10.469Z,15.60
2022-10-06T19:52:38.997Z,9.82
2022-10-06T19:55:06.129Z,15.77
2022-10-06T19:57:33.708Z,19.75
2022-10-06T20:00:00.841Z,15.13
2022-10-06T20:02:28.895Z,12.63
2022-10-06T20:04:56.237Z,14.18
2022-10-06T20:07:27.383Z,18.15
2022-10-06T20:09:54.674Z,14.52
2022-10-06T20:12:24.976Z,16.73
2022-10-06T20:14:53.695Z,27.77
2022-10-06T20:17:21.399Z,14.98
2022-10-06T20:19:48.281Z,11.43
2022-10-06T20:22:15.125Z,14.88
2022-10-06T20:24:42.071Z,13.27
2022-10-06T20:27:09.121Z,12.13
2022-10-06T20:29:36.248Z,12.13
2022-10-06T20:32:05.165Z,14.50
2022-10-06T20:34:32.651Z,12.88
2022-10-06T20:37:02.325Z,14.52
2022-10-06T20:39:49.683Z,14.00
2022-10-06T20:42:17.455Z,14.88
2022-10-06T20:44:44.551Z,13.75
2022-10-06T20:47:14.405Z,12.38
2022-10-06T20:49:44.588Z,13.88
2022-10-06T20:52:14.639Z,12.35
2022-10-06T20:54:42.085Z,14.88
2022-10-06T20:57:09.651Z,22.45
2022-10-06T20:59:37.463Z,12.00
2022-10-06T21:02:05.321Z,12.48
2022-10-06T21:04:32.590Z,17.35
2022-10-06T21:06:59.540Z,16.10
2022-10-06T21:09:28.536Z,14.10
2022-10-06T21:11:57.423Z,13.27
2022-10-06T21:14:24.564Z,21.27
2022-10-06T21:16:52.322Z,16.42
2022-10-06T21:19:20.100Z,15.73
2022-10-06T21:21:53.515Z,10.40
2022-10-06T21:24:20.765Z,8.88
2022-10-06T21:26:48.811Z,12.45
2022-10-06T21:29:16.422Z,15.43
2022-10-06T21:31:44.824Z,15.98
2022-10-06T21:34:14.403Z,16.77
2022-10-06T21:36:41.613Z,19.33
2022-10-06T21:39:08.854Z,12.20
2022-10-06T21:41:40.253Z,13.70
2022-10-06T21:44:17.116Z,11.65
2022-10-06T21:46:48.253Z,12.30
2022-10-06T21:49:17.723Z,13.50
2022-10-06T21:51:45.903Z,11.38
2022-10-06T21:54:13.699Z,12.45
2022-10-06T21:56:41.137Z,15.48
2022-10-06T21:59:08.766Z,12.20
2022-10-06T22:01:38.227Z,14.15
2022-10-06T22:04:05.766Z,13.80
2022-10-06T22:06:35.202Z,11.48
2022-10-06T22:09:03.905Z,14.18
2022-10-06T22:11:33.349Z,14.88
2022-10-06T22:14:02.940Z,7.32
2022-10-06T22:16:31.990Z,18.23
2022-10-06T22:18:59.730Z,9.75
2022-10-06T22:21:35.017Z,14.73
2022-10-06T22:24:28.204Z,17.95
2022-10-06T22:26:55.061Z,17.42
2022-10-06T22:29:22.248Z,14.65
2022-10-06T22:31:49.328Z,16.92
2022-10-06T22:34:19.301Z,17.23
2022-10-06T22:36:46.466Z,10.15
2022-10-06T22:39:13.314Z,16.23
2022-10-06T22:41:40.443Z,11.57
2022-10-06T22:44:07.282Z,13.85
2022-10-06T22:46:36.399Z,14.02
2022-10-06T22:49:04.733Z,15.95
2022-10-06T22:51:31.855Z,11.63
2022-10-06T22:53:59.818Z,12.40
2022-10-06T22:56:29.305Z,16.27
2022-10-06T22:58:59.846Z,15.30
2022-10-06T23:01:28.362Z,20.08
2022-10-06T23:03:55.963Z,12.73
2022-10-06T23:06:23.259Z,13.75
2022-10-06T23:08:50.196Z,10.65
2022-10-06T23:11:19.685Z,11.18
2022-10-06T23:13:48.444Z,13.63
2022-10-06T23:16:17.156Z,13.10
2022-10-06T23:18:45.148Z,13.77
2022-10-06T23:21:22.031Z,11.90
2022-10-06T23:23:51.557Z,13.68
2022-10-06T23:26:19.509Z,11.32
2022-10-06T23:28:50.661Z,16.27
2022-10-06T23:31:17.678Z,12.73
2022-10-06T23:33:44.534Z,15.75
2022-10-06T23:36:12.607Z,12.55
2022-10-06T23:38:39.685Z,15.93
2022-10-06T23:41:07.221Z,14.77
2022-10-06T23:43:34.495Z,18.05
2022-10-06T23:46:01.905Z,16.92
2022-10-06T23:48:29.194Z,14.27
2022-10-06T23:50:58.237Z,14.35
2022-10-06T23:53:25.471Z,15.27
2022-10-06T23:55:52.423Z,17.40
2022-10-06T23:58:20.598Z,19.73
